Time;durP1;ratioP1;P1;durP2;ratioP2;P2;SDS_P1;SDS_P2;PMS_P1;PMS_P2;Temp;Humidity;BMP_temperature;BMP_pressure;BME280_temperature;BME280_humidity;BME280_pressure;Samples;Min_cycle;Max_cycle;Signal;HPM_P1;HPM_P2
2023/08/09 00:01:07;;;;;;;4.65;1.38;;;;;;;10.29;95.34;100848.03;4891915;29;20064;-83
2023/08/09 00:03:53;;;;;;;4.10;1.20;;;;;;;10.27;95.29;100845.63;4917214;29;20059;-84
2023/08/09 00:06:25;;;;;;;7.00;1.20;;;;;;;10.24;95.56;100848.06;4902948;29;20115;-86
2023/08/09 00:12:16;;;;;;;;;;;;;;;;;;;;;
2023/08/09 00:15:02;;;;;;;2.25;1.20;;;;;;;10.29;96.11;100856.88;4920909;29;20542;-82
2023/08/09 00:17:43;;;;;;;3.72;1.05;;;;;;;10.25;96.30;100849.66;4893009;29;20477;-86
2023/08/09 00:20:28;;;;;;;6.10;1.13;;;;;;;10.31;96.88;100845.94;4905350;29;20499;-86
2023/08/09 00:22:58;;;;;;;8.15;1.40;;;;;;;10.30;96.59;100847.81;4900162;29;20087;-83
2023/08/09 00:25:27;;;;;;;5.47;1.50;;;;;;;10.25;96.49;100845.09;4887526;29;20045;-89
2023/08/09 00:27:53;;;;;;;4.22;1.40;;;;;;;10.31;96.58;100848.59;4899403;29;20106;-78
2023/08/09 00:30:22;;;;;;;2.58;1.20;;;;;;;10.28;96.60;100851.78;4903238;29;20064;-86
2023/08/09 00:32:49;;;;;;;4.72;1.30;;;;;;;10.32;96.37;100850.19;4897079;29;20029;-82
2023/08/09 00:35:15;;;;;;;;;;;;;;;10.30;96.60;100847.81;4895143;29;20037;-78
2023/08/09 00:37:41;;;;;;;7.30;1.30;;;;;;;10.26;96.19;100845.91;4862789;29;19916;-80
2023/08/09 00:40:07;;;;;;;3.83;1.30;;;;;;;10.26;95.97;100852.06;4875047;29;20565;-78
2023/08/09 00:42:34;;;;;;;2.35;1.05;;;;;;;10.29;96.22;100856.88;4888702;29;20514;-79
2023/08/09 00:45:10;;;;;;;6.60;1.30;;;;;;;10.30;96.96;100858.50;4874116;29;20036;-79
2023/08/09 00:47:52;;;;;;;3.85;1.35;;;;;;;10.28;97.41;100843.75;4912180;29;20051;-83
2023/08/09 00:50:25;;;;;;;4.30;1.20;;;;;;;10.31;97.20;100859.31;4866874;29;20208;-82
2023/08/09 00:53:20;;;;;;;6.22;1.10;;;;;;;10.33;97.14;100852.59;4900952;29;20041;-82
2023/08/09 00:55:58;;;;;;;4.65;1.60;;;;;;;10.32;97.42;100851.00;4883862;29;20040;-80
2023/08/09 00:58:41;;;;;;;3.78;1.20;;;;;;;10.39;97.14;100866.81;4870607;29;20045;-80
2023/08/09 01:01:27;;;;;;;4.95;1.40;;;;;;;10.41;97.24;100861.19;4880446;29;20129;-82
2023/08/09 01:04:08;;;;;;;5.35;1.27;;;;;;;10.32;97.28;100844.84;4874748;29;20068;-80
2023/08/09 01:06:51;;;;;;;;;;;;;;;10.34;97.20;100854.22;4895034;29;20188;-80
2023/08/09 01:09:50;;;;;;;4.82;1.23;;;;;;;10.27;97.15;100848.31;4888633;29;19928;-81
2023/08/09 01:12:27;;;;;;;4.85;1.27;;;;;;;10.25;96.76;100853.13;4878992;29;20514;-80
2023/08/09 01:15:13;;;;;;;7.68;1.50;;;;;;;10.28;96.75;100867.84;4902604;29;20032;-80
2023/08/09 01:17:58;;;;;;;6.60;1.60;;;;;;;10.28;96.81;100870.53;4909731;29;20109;-81
2023/08/09 01:20:49;;;;;;;6.10;1.58;;;;;;;10.25;96.80;100871.06;4887356;29;20048;-81
2023/08/09 01:23:34;;;;;;;4.32;1.40;;;;;;;10.27;96.82;100868.94;4900578;29;20767;-80
2023/08/09 01:26:08;;;;;;;3.95;1.30;;;;;;;10.23;96.65;100871.34;4889705;29;20061;-82
2023/08/09 01:29:00;;;;;;;4.60;1.23;;;;;;;10.25;96.63;100869.19;4909155;29;20044;-80
2023/08/09 01:34:25;;;;;;;9.80;1.13;;;;;;;10.26;96.89;100867.31;4901827;29;20040;-82
2023/08/09 01:36:52;;;;;;;6.30;1.38;;;;;;;10.24;96.64;100869.47;4871613;29;20115;-81
2023/08/09 01:39:22;;;;;;;8.38;1.20;;;;;;;10.21;96.09;100865.41;4890047;29;20040;-81
2023/08/09 01:41:50;;;;;;;7.10;1.45;;;;;;;10.23;96.35;100883.88;4874418;29;20048;-79
2023/08/09 01:44:16;;;;;;;3.28;1.23;;;;;;;10.18;96.32;100871.28;4891956;29;20044;-81
2023/08/09 01:46:44;;;;;;;6.10;1.42;;;;;;;10.21;96.43;100869.94;4885698;29;20039;-80
2023/08/09 01:49:14;;;;;;;4.70;1.30;;;;;;;10.21;96.75;100877.97;4892593;29;20037;-80
2023/08/09 01:51:41;;;;;;;6.20;1.63;;;;;;;10.18;96.74;100871.28;4891188;29;20064;-78
2023/08/09 01:54:11;;;;;;;6.10;1.45;;;;;;;10.17;96.30;100879.59;4877426;29;20044;-79
2023/08/09 01:56:37;;;;;;;4.43;1.33;;;;;;;10.15;96.20;100879.03;4880482;29;20650;-79
2023/08/09 01:59:05;;;;;;;4.90;1.10;;;;;;;10.14;96.35;100880.91;4869233;29;20473;-80
2023/08/09 02:01:35;;;;;;;5.20;1.20;;;;;;;10.13;96.46;100884.66;4870861;29;20416;-80
2023/08/09 02:04:00;;;;;;;6.10;1.52;;;;;;;10.10;95.86;100880.63;4873676;29;20044;-80
2023/08/09 02:06:26;;;;;;;5.55;1.35;;;;;;;10.04;96.15;100875.53;4901938;29;20048;-80
2023/08/09 02:08:52;;;;;;;4.15;1.30;;;;;;;10.06;96.23;100890.25;4903899;29;20450;-81
2023/08/09 02:11:17;;;;;;;3.65;1.30;;;;;;;10.03;95.99;100885.44;4871447;29;20387;-79
2023/08/09 02:13:44;;;;;;;3.35;1.23;;;;;;;10.02;96.38;100886.47;4885582;29;20147;-80
2023/08/09 02:16:10;;;;;;;2.42;1.23;;;;;;;10.00;96.41;100888.59;4873118;29;20096;-79
2023/08/09 02:18:35;;;;;;;6.85;1.48;;;;;;;9.99;95.92;100895.03;4891330;29;20068;-80
2023/08/09 02:21:02;;;;;;;7.95;1.52;;;;;;;10.00;96.12;100890.47;4874791;29;20123;-80
2023/08/09 02:23:29;;;;;;;5.35;1.58;;;;;;;9.98;96.25;100881.91;4890862;29;20635;-80
2023/08/09 02:25:55;;;;;;;6.22;1.60;;;;;;;9.95;96.35;100888.59;4887349;29;20116;-80
2023/08/09 02:28:21;;;;;;;3.92;1.30;;;;;;;9.98;96.32;100888.06;4871240;29;20489;-80
2023/08/09 02:30:47;;;;;;;5.10;1.40;;;;;;;9.97;96.27;100886.47;4883238;29;20520;-80
2023/08/09 02:33:12;;;;;;;4.07;1.75;;;;;;;9.96;96.15;100890.22;4871237;29;20041;-79
2023/08/09 02:35:57;;;;;;;5.68;1.60;;;;;;;9.96;96.63;100900.13;4887596;29;20812;-78
2023/08/09 02:38:25;;;;;;;11.32;1.90;;;;;;;9.96;97.11;100890.22;4888092;29;20415;-79
2023/08/09 02:40:51;;;;;;;3.28;1.67;;;;;;;9.97;97.26;100889.16;4888545;29;20054;-79
2023/08/09 02:43:18;;;;;;;5.88;1.63;;;;;;;10.00;97.37;100891.28;4888482;29;20037;-82
2023/08/09 02:45:45;;;;;;;6.68;2.65;;;;;;;9.98;97.00;100888.06;4903388;29;20123;-79
2023/08/09 02:48:11;;;;;;;;;;;;;;;9.97;97.23;100891.81;4857688;29;20451;-80
2023/08/09 02:50:37;;;;;;;3.22;1.60;;;;;;;9.98;97.67;100888.06;4871995;29;20292;-79
2023/08/09 02:53:04;;;;;;;3.85;1.60;;;;;;;10.01;97.31;100897.44;4886311;29;20529;-80
2023/08/09 02:55:31;;;;;;;5.53;1.70;;;;;;;9.98;97.20;100898.78;4863875;29;20064;-81
2023/08/09 02:57:57;;;;;;;6.30;2.15;;;;;;;9.97;96.97;100894.50;4878242;29;20072;-80
2023/08/09 03:00:23;;;;;;;5.05;1.73;;;;;;;9.97;96.79;100899.84;4890912;29;20044;-79
2023/08/09 03:02:49;;;;;;;7.13;2.05;;;;;;;9.94;96.65;100900.34;4890957;29;20051;-80
2023/08/09 03:05:16;;;;;;;5.65;1.90;;;;;;;9.95;96.83;100880.56;4890652;29;20123;-78
2023/08/09 03:07:42;;;;;;;5.85;2.05;;;;;;;9.94;96.69;100892.31;4866774;29;20151;-81
2023/08/09 03:10:08;;;;;;;4.90;1.92;;;;;;;9.93;97.19;100896.06;4888416;29;20092;-80
2023/08/09 03:12:35;;;;;;;3.25;1.67;;;;;;;9.90;96.38;100907.31;4885774;29;20494;-80
2023/08/09 03:15:01;;;;;;;;;;;;;;;9.85;96.26;100909.94;4886772;29;20028;-81
2023/08/09 03:17:28;;;;;;;3.05;1.42;;;;;;;9.83;96.25;100906.75;4887048;29;19916;-80
2023/08/09 03:19:53;;;;;;;3.30;1.80;;;;;;;9.81;96.64;100908.84;4893918;29;20047;-80
2023/08/09 03:22:19;;;;;;;6.30;2.20;;;;;;;9.83;96.66;100901.41;4863740;29;20037;-81
2023/08/09 03:24:45;;;;;;;9.05;2.22;;;;;;;9.78;96.39;100920.09;4891262;29;20550;-81
2023/08/09 03:27:10;;;;;;;6.20;2.40;;;;;;;9.77;96.96;100913.13;4877731;29;20526;-81
2023/08/09 03:29:37;;;;;;;5.90;2.17;;;;;;;9.76;96.88;100911.53;4890204;29;20045;-80
2023/08/09 03:32:03;;;;;;;;;;;;;;;9.75;96.75;100912.56;4888591;29;20152;-79
2023/08/09 03:34:29;;;;;;;5.35;1.73;;;;;;;9.72;97.16;100908.56;4863697;29;20026;-81
2023/08/09 03:36:55;;;;;;;6.03;1.95;;;;;;;9.75;97.09;100913.38;4877906;29;20423;-80
2023/08/09 03:39:21;;;;;;;4.45;2.00;;;;;;;9.77;97.12;100918.47;4889262;29;20064;-81
2023/08/09 03:41:47;;;;;;;3.78;1.67;;;;;;;9.72;97.14;100905.88;4892509;29;20092;-80
2023/08/09 03:44:14;;;;;;;5.07;1.85;;;;;;;9.74;97.13;100908.28;4889507;29;20032;-82
2023/08/09 03:46:43;;;;;;;7.13;1.98;;;;;;;9.81;97.08;100917.69;4875402;29;20048;-81
2023/08/09 03:49:09;;;;;;;4.20;1.92;;;;;;;9.80;97.35;100912.59;4904595;29;20070;-81
2023/08/09 03:51:36;;;;;;;6.38;1.77;;;;;;;9.77;97.24;100918.47;4875636;29;20101;-80
2023/08/09 03:54:02;;;;;;;4.65;1.60;;;;;;;9.83;97.38;100928.16;4874481;29;20037;-80
2023/08/09 03:56:28;;;;;;;6.65;2.13;;;;;;;9.77;97.17;100932.66;4863642;29;20449;-80
2023/08/09 03:58:53;;;;;;;4.40;2.00;;;;;;;9.81;97.28;100930.25;4879410;29;20064;-82
2023/08/09 04:01:19;;;;;;;3.13;1.80;;;;;;;9.85;97.26;100932.16;4889998;29;20068;-80
2023/08/09 04:03:45;;;;;;;7.78;2.20;;;;;;;9.83;97.28;100928.16;4876586;29;20119;-81
2023/08/09 04:06:11;;;;;;;5.03;2.00;;;;;;;9.84;97.52;100933.22;4873400;29;20221;-81
2023/08/09 04:08:37;;;;;;;6.15;1.80;;;;;;;9.86;97.83;100935.63;4874549;29;20033;-79
2023/08/09 04:11:04;;;;;;;4.35;1.90;;;;;;;9.89;97.78;100939.66;4887563;29;20039;-81
2023/08/09 04:13:30;;;;;;;5.40;1.77;;;;;;;9.90;98.04;100950.13;4889632;29;20052;-79
2023/08/09 04:15:56;;;;;;;9.07;2.20;;;;;;;9.90;98.03;100944.75;4903510;29;20047;-80
2023/08/09 04:18:22;;;;;;;4.22;2.10;;;;;;;9.93;98.29;100940.75;4877471;29;20036;-79
2023/08/09 04:20:49;;;;;;;6.32;2.17;;;;;;;9.97;98.53;100950.69;4881696;29;20520;-78
2023/08/09 04:23:15;;;;;;;7.85;2.65;;;;;;;9.97;98.22;100945.34;4887525;29;20039;-79
2023/08/09 04:25:41;;;;;;;3.58;1.92;;;;;;;10.00;98.31;100952.81;4878252;29;20049;-80
2023/08/09 04:28:08;;;;;;;7.70;2.20;;;;;;;10.01;98.61;100946.41;4887417;29;20066;-81
2023/08/09 04:30:36;;;;;;;4.40;1.83;;;;;;;10.05;98.37;100946.69;4900359;29;20162;-81
2023/08/09 04:33:06;;;;;;;4.53;2.00;;;;;;;10.06;98.51;100954.47;4890320;29;20494;-81
2023/08/09 04:35:33;;;;;;;5.72;2.03;;;;;;;10.11;98.30;100967.06;4900372;29;20044;-81
2023/08/09 04:38:04;;;;;;;4.60;1.90;;;;;;;10.12;98.00;100972.16;4874890;29;20119;-79
2023/08/09 04:40:30;;;;;;;5.55;2.30;;;;;;;10.16;98.75;100971.63;4857967;29;20087;-81
2023/08/09 04:42:57;;;;;;;6.72;2.20;;;;;;;10.17;98.33;100973.25;4902730;29;20537;-80
2023/08/09 04:45:24;;;;;;;4.32;1.88;;;;;;;10.19;98.89;100973.78;4907678;29;20041;-79
2023/08/09 04:47:52;;;;;;;7.70;2.33;;;;;;;10.23;98.69;100974.91;4888514;29;20104;-79
2023/08/09 04:50:19;;;;;;;5.25;1.70;;;;;;;10.27;98.63;100978.66;4894661;29;20401;-79
2023/08/09 04:52:46;;;;;;;5.90;1.77;;;;;;;10.33;98.89;100980.31;4888924;29;20076;-78
2023/08/09 04:55:11;;;;;;;5.40;2.10;;;;;;;10.35;98.98;100975.47;4891894;29;20064;-79
2023/08/09 04:57:38;;;;;;;3.45;1.58;;;;;;;10.41;98.84;100976.31;4874062;29;20136;-80
2023/08/09 05:00:08;;;;;;;4.78;1.80;;;;;;;10.47;98.83;100984.09;4895084;29;20040;-81
2023/08/09 05:02:36;;;;;;;5.72;1.52;;;;;;;10.55;99.01;100983.59;4892772;29;20414;-81
2023/08/09 05:05:03;;;;;;;9.80;1.83;;;;;;;10.66;99.42;100982.56;4877203;29;20044;-79
2023/08/09 05:07:31;;;;;;;4.90;1.90;;;;;;;10.77;99.77;100986.06;4877011;29;20140;-80
2023/08/09 05:10:00;;;;;;;7.32;1.88;;;;;;;10.88;100.00;100992.25;4876682;29;20088;-80
2023/08/09 05:12:25;;;;;;;5.57;2.15;;;;;;;10.94;100.00;100981.28;4889665;29;20475;-78
2023/08/09 05:14:51;;;;;;;4.80;1.80;;;;;;;10.98;100.00;100992.28;4887477;29;20040;-78
2023/08/09 05:17:17;;;;;;;6.28;2.17;;;;;;;11.04;100.00;100999.25;4900531;29;20040;-79
2023/08/09 05:19:44;;;;;;;4.95;1.70;;;;;;;11.12;99.99;100992.56;4873827;29;20127;-78
2023/08/09 05:22:09;;;;;;;10.48;1.70;;;;;;;11.21;99.86;100997.13;4885361;29;20075;-77
2023/08/09 05:24:36;;;;;;;7.55;1.73;;;;;;;11.30;100.00;101005.41;4877361;29;20040;-78
2023/08/09 05:27:01;;;;;;;4.05;1.77;;;;;;;11.37;99.44;100999.78;4888888;29;20044;-77
2023/08/09 05:29:28;;;;;;;9.18;2.60;;;;;;;11.47;100.00;101005.16;4882744;29;20733;-80
2023/08/09 05:31:54;;;;;;;3.10;1.60;;;;;;;11.58;100.00;101001.38;4889803;29;20044;-79
2023/08/09 05:34:19;;;;;;;6.97;1.80;;;;;;;11.68;100.00;101009.44;4890893;29;20665;-80
2023/08/09 05:36:45;;;;;;;8.45;2.00;;;;;;;11.75;99.53;101009.97;4890019;29;20115;-76
2023/08/09 05:39:12;;;;;;;6.47;1.65;;;;;;;11.78;99.86;101022.03;4881446;29;20048;-78
2023/08/09 05:41:39;;;;;;;6.70;1.63;;;;;;;11.80;99.64;101019.91;4902755;29;20071;-78
2023/08/09 05:44:05;;;;;;;4.75;1.80;;;;;;;11.84;99.65;101030.91;4903275;29;20036;-77
2023/08/09 05:46:31;;;;;;;4.57;1.67;;;;;;;11.83;96.65;101021.25;4883769;29;20423;-78
2023/08/09 05:48:56;;;;;;;9.80;1.80;;;;;;;12.00;97.28;101019.09;4890148;29;20037;-76
2023/08/09 05:51:23;;;;;;;4.88;1.80;;;;;;;12.10;96.24;101016.38;4886469;29;20135;-78
2023/08/09 05:53:49;;;;;;;5.78;1.75;;;;;;;12.21;96.09;101020.63;4873791;29;20040;-78
2023/08/09 05:56:14;;;;;;;3.97;1.75;;;;;;;12.32;97.47;101028.63;4902845;29;20049;-76
2023/08/09 05:58:40;;;;;;;4.68;1.83;;;;;;;12.35;98.03;101023.53;4908649;29;20038;-78
2023/08/09 06:01:07;;;;;;;4.82;2.00;;;;;;;12.37;98.54;101031.31;4895391;29;20056;-78
2023/08/09 06:03:40;;;;;;;6.47;2.05;;;;;;;12.35;98.13;101033.47;4878496;29;20040;-78
2023/08/09 06:06:12;;;;;;;5.00;1.40;;;;;;;12.38;96.29;101035.59;4882846;29;20051;-78
2023/08/09 06:08:39;;;;;;;5.20;2.00;;;;;;;12.47;97.00;101023.22;4894303;29;20063;-78
2023/08/09 06:11:05;;;;;;;6.53;1.90;;;;;;;12.52;97.22;101042.00;4888385;29;20414;-78
2023/08/09 06:13:31;;;;;;;5.88;1.55;;;;;;;12.57;97.63;101044.66;4889282;29;20045;-79
2023/08/09 06:15:58;;;;;;;5.85;1.52;;;;;;;12.59;97.16;101045.19;4888730;29;20092;-77
2023/08/09 06:18:24;;;;;;;4.88;1.30;;;;;;;12.67;94.96;101047.31;4902995;29;20064;-79
2023/08/09 06:20:50;;;;;;;9.23;1.65;;;;;;;12.75;95.75;101049.44;4889827;29;20068;-78
2023/08/09 06:23:15;;;;;;;8.18;1.55;;;;;;;12.84;96.18;101055.81;4874272;29;20141;-77
2023/08/09 06:25:41;;;;;;;2.63;1.50;;;;;;;12.98;96.93;101058.72;4885180;29;20123;-78
2023/08/09 06:28:08;;;;;;;4.63;1.33;;;;;;;13.03;94.19;101052.50;4876150;29;20055;-79
2023/08/09 06:30:33;;;;;;;6.32;1.60;;;;;;;13.12;95.88;101062.38;4876971;29;20048;-78
2023/08/09 06:33:01;;;;;;;4.30;1.70;;;;;;;13.18;96.96;101068.53;4892262;29;20052;-79
2023/08/09 06:35:27;;;;;;;5.22;1.60;;;;;;;13.23;95.49;101063.16;4894837;29;20068;-79
2023/08/09 06:37:52;;;;;;;5.43;1.65;;;;;;;13.33;95.23;101060.38;4901375;29;20086;-79
2023/08/09 06:40:18;;;;;;;;;;;;;;;13.46;95.39;101071.59;4906747;29;20033;-77
2023/08/09 06:42:44;;;;;;;9.75;1.73;;;;;;;13.59;96.05;101076.34;4894171;29;19925;-79
2023/08/09 06:45:13;;;;;;;3.15;1.30;;;;;;;13.66;92.54;101076.84;4896205;29;20375;-78
2023/08/09 06:47:39;;;;;;;4.85;1.25;;;;;;;13.81;92.82;101084.78;4876926;29;20132;-78
2023/08/09 06:50:05;;;;;;;5.70;1.40;;;;;;;13.87;94.43;101086.34;4881255;29;20123;-78
2023/08/09 06:52:33;;;;;;;4.40;1.50;;;;;;;13.90;94.39;101090.38;4891726;29;20033;-78
2023/08/09 06:55:00;;;;;;;5.80;1.45;;;;;;;13.96;93.36;101099.22;4885205;29;20131;-78
2023/08/09 06:57:26;;;;;;;4.38;1.30;;;;;;;13.99;91.39;101095.94;4887518;29;20048;-79
2023/08/09 06:59:53;;;;;;;4.30;1.30;;;;;;;14.09;90.11;101109.28;4888551;29;20064;-77
2023/08/09 07:02:20;;;;;;;5.00;1.33;;;;;;;14.18;92.15;101099.53;4907103;29;20047;-79
2023/08/09 07:04:47;;;;;;;6.90;1.58;;;;;;;14.27;91.23;101097.00;4895204;29;20400;-78
2023/08/09 07:07:13;;;;;;;5.47;1.42;;;;;;;14.38;89.80;101103.91;4901191;29;20036;-78
2023/08/09 07:09:39;;;;;;;5.75;1.38;;;;;;;14.50;91.65;101106.25;4882546;29;20037;-79
2023/08/09 07:12:04;;;;;;;;;;;;;;;14.54;89.38;101118.03;4882074;29;20040;-79
2023/08/09 07:14:30;;;;;;;6.80;1.13;;;;;;;14.66;89.36;101115.75;4908571;29;19976;-79
2023/08/09 07:16:55;;;;;;;;;;;;;;;14.65;90.02;101124.91;4909329;29;20064;-79
2023/08/09 07:19:21;;;;;;;7.13;1.60;;;;;;;14.58;89.88;101135.25;4883946;29;19919;-79
2023/08/09 07:21:47;;;;;;;;;;;;;;;14.56;89.31;101126.63;4892197;29;20044;-78
2023/08/09 07:24:13;;;;;;;5.05;1.20;;;;;;;14.43;89.11;101123.50;4888004;29;19915;-78
2023/08/09 07:26:39;;;;;;;;;;;;;;;14.41;87.47;101131.06;4903659;29;20043;-78
2023/08/09 07:29:04;;;;;;;5.93;1.13;;;;;;;14.40;90.32;101134.84;4882815;29;19924;-78
2023/08/09 07:31:31;;;;;;;7.40;1.60;;;;;;;14.38;89.59;101141.63;4909332;29;20040;-77
2023/08/09 07:33:56;;;;;;;;;;;;;;;14.30;87.69;101150.31;4884133;29;20092;-77
2023/08/09 07:36:22;;;;;;;2.05;1.00;;;;;;;14.31;88.03;101146.53;4881591;29;19984;-79
2023/08/09 07:38:48;;;;;;;;;;;;;;;14.38;89.79;101149.69;4894410;29;20486;-79
2023/08/09 07:41:15;;;;;;;7.72;1.50;;;;;;;14.35;89.70;101164.53;4896516;29;19931;-79
2023/08/09 07:43:40;;;;;;;;;;;;;;;14.34;85.95;101154.84;4895346;29;20040;-80
2023/08/09 07:46:06;;;;;;;5.63;1.45;;;;;;;14.47;86.97;101154.19;4899083;29;19951;-75
2023/08/09 07:48:32;;;;;;;;;;;;;;;14.50;86.96;101160.13;4889860;29;20044;-77
2023/08/09 07:51:00;;;;;;;8.02;1.55;;;;;;;14.50;88.70;101170.91;4882446;29;19922;-79
2023/08/09 07:53:26;;;;;;;9.38;1.55;;;;;;;14.45;90.29;101177.91;4904697;29;20623;-77
2023/08/09 07:55:53;;;;;;;6.22;1.60;;;;;;;14.39;88.13;101176.34;4874886;29;20084;-78
2023/08/09 07:58:19;;;;;;;8.48;1.42;;;;;;;14.46;88.36;101176.84;4881315;29;20033;-78
2023/08/09 08:00:44;;;;;;;6.45;1.45;;;;;;;14.58;88.66;101189.16;4878648;29;20032;-78
2023/08/09 08:03:10;;;;;;;6.10;1.20;;;;;;;14.65;87.12;101181.53;4894145;29;20072;-78
2023/08/09 08:05:40;;;;;;;;;;;;;;;14.70;85.65;101193.06;4890127;29;20044;-79
2023/08/09 08:08:06;;;;;;;4.88;1.73;;;;;;;14.72;89.05;101203.56;4888205;29;19923;-79
2023/08/09 08:10:32;;;;;;;;;;;;;;;14.64;85.47;101209.56;4894924;29;20041;-79
2023/08/09 08:12:58;;;;;;;5.38;1.52;;;;;;;14.56;85.56;101207.47;4909976;29;19915;-78
2023/08/09 08:15:23;;;;;;;;;;;;;;;14.51;85.35;101202.97;4874473;29;20052;-78
2023/08/09 08:17:52;;;;;;;4.30;1.38;;;;;;;14.63;87.09;101198.00;4903776;29;20010;-77
2023/08/09 08:20:19;;;;;;;4.43;1.40;;;;;;;14.71;85.47;101196.56;4869474;29;20447;-78
2023/08/09 08:22:47;;;;;;;6.07;1.20;;;;;;;14.82;87.61;101194.53;4865649;29;20032;-79
2023/08/09 08:25:14;;;;;;;4.43;1.17;;;;;;;14.86;87.60;101201.78;4893094;29;20044;-79
2023/08/09 08:27:45;;;;;;;6.35;1.50;;;;;;;14.88;86.64;101202.28;4907726;29;20123;-78
2023/08/09 08:30:17;;;;;;;4.28;1.40;;;;;;;15.00;85.00;101201.88;4908177;29;20055;-78
2023/08/09 08:32:46;;;;;;;5.78;1.70;;;;;;;15.12;86.03;101212.28;4872090;29;20041;-76
2023/08/09 08:35:13;;;;;;;4.63;1.17;;;;;;;15.24;86.85;101218.88;4904485;29;20036;-78
2023/08/09 08:37:43;;;;;;;10.10;1.80;;;;;;;15.33;86.63;101216.31;4905002;29;20064;-78
2023/08/09 08:40:21;;;;;;;5.72;1.52;;;;;;;15.46;85.00;101206.72;4893513;29;20502;-77
2023/08/09 08:42:48;;;;;;;5.50;1.23;;;;;;;15.62;84.76;101213.53;4887818;29;20041;-79
2023/08/09 08:45:15;;;;;;;4.32;1.30;;;;;;;15.72;83.53;101207.19;4889881;29;20045;-78
2023/08/09 08:47:43;;;;;;;3.47;1.30;;;;;;;15.81;82.53;101202.72;4887491;29;20064;-79
2023/08/09 08:50:11;;;;;;;3.72;1.50;;;;;;;15.98;82.36;101199.47;4874716;29;20041;-79
2023/08/09 08:52:39;;;;;;;5.97;1.88;;;;;;;16.14;82.99;101208.97;4859702;29;20107;-76
2023/08/09 08:55:06;;;;;;;4.93;1.35;;;;;;;16.34;80.79;101213.22;4887328;29;20048;-76
2023/08/09 08:57:33;;;;;;;4.97;1.77;;;;;;;16.48;79.91;101214.06;4886721;29;20044;-76
2023/08/09 09:00:02;;;;;;;5.72;1.35;;;;;;;16.64;81.10;101223.50;4885659;29;20502;-78
2023/08/09 09:02:28;;;;;;;4.07;1.48;;;;;;;16.69;80.56;101221.81;4890680;29;20033;-76
2023/08/09 09:04:53;;;;;;;;;;;;;;;16.68;78.06;101217.50;4887676;29;20052;-81
2023/08/09 09:07:21;;;;;;;5.97;1.38;;;;;;;16.78;78.42;101228.16;4895351;29;19931;-76
2023/08/09 09:09:58;;;;;;;3.67;1.23;;;;;;;16.72;77.68;101226.63;4885874;29;20051;-77
2023/08/09 09:12:25;;;;;;;4.72;1.05;;;;;;;16.60;78.31;101233.31;4889764;29;20069;-78
2023/08/09 09:14:52;;;;;;;5.88;1.70;;;;;;;16.43;79.64;101229.56;4901521;29;20044;-80
2023/08/09 09:17:19;;;;;;;3.53;1.40;;;;;;;16.34;82.35;101232.16;4878567;29;20536;-75
2023/08/09 09:19:46;;;;;;;4.93;1.75;;;;;;;16.24;80.17;101221.50;4901261;29;20088;-79
2023/08/09 09:22:26;;;;;;;2.75;1.10;;;;;;;16.24;83.06;101235.00;4886445;29;20069;-75
2023/08/09 09:24:52;;;;;;;3.63;1.20;;;;;;;16.19;81.73;101232.38;4882897;29;20036;-76
2023/08/09 09:27:25;;;;;;;;;;;;;;;16.20;83.30;101231.31;4890279;29;20040;-76
2023/08/09 09:29:52;;;;;;;3.75;0.80;;;;;;;16.10;80.26;101240.34;4890449;29;19926;-80
2023/08/09 09:32:18;;;;;;;4.00;1.13;;;;;;;16.05;81.98;101235.88;4883527;29;20040;-79
2023/08/09 09:34:44;;;;;;;3.88;1.80;;;;;;;16.07;82.71;101236.38;4881752;29;20124;-76
2023/08/09 09:37:14;;;;;;;;;;;;;;;15.92;78.37;101233.06;4888139;29;20119;-78
2023/08/09 09:39:41;;;;;;;4.95;1.30;;;;;;;15.98;82.47;101230.00;4894416;29;20368;-77
2023/08/09 09:42:10;;;;;;;3.90;1.58;;;;;;;16.03;80.10;101229.13;4884577;29;20029;-77
2023/08/09 09:44:36;;;;;;;4.20;1.40;;;;;;;16.12;80.69;101227.34;4876028;29;20080;-76
2023/08/09 09:47:03;;;;;;;;;;;;;;;16.26;80.46;101227.44;4888024;29;20430;-78
2023/08/09 09:49:34;;;;;;;4.57;1.30;;;;;;;16.38;80.88;101231.25;4870665;29;19916;-77
2023/08/09 09:52:03;;;;;;;8.82;1.98;;;;;;;16.44;81.50;101228.47;4893357;29;20554;-76
2023/08/09 09:54:28;;;;;;;8.10;1.83;;;;;;;16.46;79.65;101232.50;4891685;29;20072;-76
2023/08/09 09:56:58;;;;;;;5.55;1.35;;;;;;;16.68;79.98;101226.41;4890454;29;20432;-78
2023/08/09 09:59:24;;;;;;;6.63;1.40;;;;;;;16.91;77.37;101232.75;4872815;29;20607;-73
2023/08/09 10:01:51;;;;;;;6.22;1.23;;;;;;;17.14;77.00;101230.97;4901837;29;20505;-76
2023/08/09 10:04:19;;;;;;;5.70;1.35;;;;;;;17.30;75.90;101232.25;4889522;29;20544;-79
2023/08/09 10:06:47;;;;;;;7.45;2.15;;;;;;;17.42;77.30;101248.00;4866530;29;20124;-77
2023/08/09 10:09:13;;;;;;;6.78;1.92;;;;;;;17.28;73.64;101233.69;4874232;29;20845;-78
2023/08/09 10:11:43;;;;;;;5.95;1.33;;;;;;;17.43;75.72;101233.34;4892767;29;20452;-76
2023/08/09 10:14:11;;;;;;;4.93;1.38;;;;;;;17.57;73.75;101231.41;4869211;29;20583;-75
2023/08/09 10:16:38;;;;;;;10.05;2.15;;;;;;;17.61;74.07;101250.53;4889979;29;20041;-77
2023/08/09 10:19:10;;;;;;;6.50;1.70;;;;;;;17.70;75.40;101236.00;4892600;29;20561;-76
2023/08/09 10:21:39;;;;;;;;;;;;;;;17.64;72.77;101229.09;4888767;29;20048;-80
2023/08/09 10:24:07;;;;;;;6.22;1.27;;;;;;;17.81;71.35;101235.78;4891760;29;19923;-77
2023/08/09 10:26:35;;;;;;;4.85;1.30;;;;;;;17.80;74.97;101247.72;4891605;29;20059;-79
2023/08/09 10:29:12;;;;;;;6.72;1.55;;;;;;;17.90;70.30;101242.09;4887411;29;20037;-77
2023/08/09 10:31:48;;;;;;;4.30;1.70;;;;;;;18.00;70.91;101236.41;4905879;29;20047;-78
2023/08/09 10:34:20;;;;;;;7.38;1.55;;;;;;;18.15;67.49;101232.53;4883226;29;20052;-79
2023/08/09 10:36:53;;;;;;;7.22;1.50;;;;;;;18.24;69.09;101230.69;4886826;29;20029;-78
2023/08/09 10:39:21;;;;;;;5.82;1.27;;;;;;;18.38;69.44;101238.75;4891765;29;20131;-78
2023/08/09 10:42:05;;;;;;;6.93;1.50;;;;;;;18.30;65.51;101225.97;4897552;29;20530;-78
2023/08/09 10:44:31;;;;;;;6.68;1.38;;;;;;;18.07;67.34;101236.00;4877543;29;20051;-78
2023/08/09 10:47:25;;;;;;;5.13;1.30;;;;;;;17.91;65.80;101249.09;4888586;29;20475;-77
2023/08/09 10:49:50;;;;;;;6.55;1.77;;;;;;;17.83;66.22;101250.63;4875857;29;20569;-78
2023/08/09 10:52:39;;;;;;;5.43;1.30;;;;;;;17.79;67.63;101257.75;4887931;29;20033;-78
2023/08/09 10:55:21;;;;;;;4.15;1.13;;;;;;;17.86;66.63;101257.34;4873642;29;20608;-75
2023/08/09 10:57:49;;;;;;;6.15;1.25;;;;;;;18.11;65.49;101259.47;4893674;29;20076;-75
2023/08/09 11:00:16;;;;;;;4.20;1.23;;;;;;;18.35;69.50;101263.75;4889753;29;20153;-78
2023/08/09 11:02:49;;;;;;;6.07;1.42;;;;;;;18.55;64.46;101260.53;4890599;29;20495;-78
2023/08/09 11:05:17;;;;;;;6.35;1.10;;;;;;;18.64;63.23;101266.84;4896557;29;20040;-78
2023/08/09 11:07:47;;;;;;;4.28;1.20;;;;;;;18.91;65.91;101276.75;4891709;29;20044;-80
2023/08/09 11:10:15;;;;;;;7.25;1.30;;;;;;;19.03;66.21;101273.41;4887123;29;20053;-77
2023/08/09 11:12:44;;;;;;;5.03;1.65;;;;;;;18.90;65.96;101274.31;4891774;29;20123;-79
2023/08/09 11:15:13;;;;;;;4.88;1.25;;;;;;;19.14;65.79;101269.31;4878395;29;20044;-76
2023/08/09 11:17:49;;;;;;;4.63;1.55;;;;;;;19.28;64.65;101280.06;4888422;29;21153;-78
2023/08/09 11:20:16;;;;;;;4.03;1.10;;;;;;;19.42;63.85;101266.34;4902014;29;20797;-78
2023/08/09 11:22:55;;;;;;;3.90;1.17;;;;;;;19.24;61.62;101282.63;4897449;29;20502;-79
2023/08/09 11:25:22;;;;;;;4.30;1.55;;;;;;;19.12;63.66;101276.97;4886069;29;20072;-76
2023/08/09 11:27:56;;;;;;;7.70;1.73;;;;;;;19.35;67.55;101273.03;4888966;29;20033;-76
2023/08/09 11:30:22;;;;;;;5.75;1.60;;;;;;;19.58;66.87;101279.22;4898385;29;20052;-78
2023/08/09 11:33:05;;;;;;;5.97;1.77;;;;;;;19.65;62.38;101270.59;4875783;29;20051;-77
2023/08/09 11:35:44;;;;;;;5.53;1.35;;;;;;;19.83;66.74;101288.50;4855505;29;20040;-77
2023/08/09 11:38:14;;;;;;;5.35;1.50;;;;;;;19.82;64.85;101292.34;4872387;29;20915;-77
2023/08/09 11:40:50;;;;;;;5.07;1.55;;;;;;;19.96;63.44;101294.09;4888975;29;20923;-77
2023/08/09 11:43:17;;;;;;;10.77;1.95;;;;;;;20.13;67.16;101285.97;4855561;29;20119;-76
2023/08/09 11:45:53;;;;;;;4.90;1.60;;;;;;;20.22;64.66;101285.94;4903299;29;20041;-76